Terminal Aerodrome Forecast
Issued by NWS Binghamton, NY

Home | Current Version | Previous Version | Text Only | Print | Product List | Glossary On
Versions: 1 2 3 4 5 6 7 8 9 10 11 12 13 14 15 16 17
000
FTUS41 KBGM 050637 AAA
TAFSYR
TAF AMD
KSYR 050637Z 0507/0606 31007KT P6SM SCT025 OVC035
      TEMPO 0507/0509 OVC025
     FM050900 31004KT P6SM OVC035
     FM051200 36003KT P6SM BKN250
     FM051600 VRB03KT P6SM SCT060 BKN250
     FM060000 00000KT P6SM OVC120=

USA.gov is the U.S. government's official web portal to all federal, state and local government web resources and services.